Time;durP1;ratioP1;P1;durP2;ratioP2;P2;SDS_P1;SDS_P2;PMS_P1;PMS_P2;Temp;Humidity;BMP_temperature;BMP_pressure;BME280_temperature;BME280_humidity;BME280_pressure;Samples;Min_cycle;Max_cycle;Signal;HPM_P1;HPM_P2
2021/11/17 02:28:12;;;;;;;40.25;16.30;;;;;;;-6.86;100.00;102532.21;1774302;80;21057;-85
2021/11/17 02:31:12;;;;;;;48.28;18.32;;;;;;;-6.90;100.00;102528.28;1724551;81;21036;-85
2021/11/17 02:34:07;;;;;;;46.55;18.65;;;;;;;-6.95;100.00;102522.23;1749321;81;21141;-85
2021/11/17 02:36:42;;;;;;;41.75;16.32;;;;;;;-7.04;100.00;102519.89;1753141;80;21022;-84
2021/11/17 02:39:23;;;;;;;40.10;16.80;;;;;;;-7.11;100.00;102518.00;1749180;81;21016;-85
2021/11/17 02:42:05;;;;;;;;;;;;;;;-7.15;100.00;102518.72;1754264;81;21135;-84
2021/11/17 02:44:55;;;;;;;34.80;14.65;;;;;;;-7.22;100.00;102522.77;1750771;80;20240;-84
2021/11/17 02:47:40;;;;;;;29.23;13.65;;;;;;;-7.29;100.00;102515.38;1751682;80;21207;-85
2021/11/17 02:50:44;;;;;;;32.25;15.05;;;;;;;-7.31;100.00;102526.28;1723996;81;21096;-83
2021/11/17 02:53:46;;;;;;;37.28;16.90;;;;;;;-7.36;100.00;102524.87;1742812;81;21046;-84
2021/11/17 02:56:39;;;;;;;33.35;15.75;;;;;;;-7.40;100.00;102520.52;1681319;85;21052;-85
2021/11/17 02:59:46;;;;;;;27.95;13.08;;;;;;;-7.50;100.00;102516.86;1702294;83;21120;-83
2021/11/17 03:02:29;;;;;;;29.40;14.58;;;;;;;-7.52;100.00;102516.37;1723524;81;21903;-85
2021/11/17 03:05:11;;;;;;;30.82;12.88;;;;;;;-7.52;100.00;102513.84;1721272;81;21156;-84
2021/11/17 03:07:52;;;;;;;26.23;12.40;;;;;;;-7.51;100.00;102507.97;1725254;81;21049;-83
2021/11/17 03:10:51;;;;;;;33.55;15.83;;;;;;;-7.48;100.00;102512.72;1717212;81;20991;-83
2021/11/17 03:13:55;;;;;;;41.83;17.90;;;;;;;-7.41;100.00;102521.33;1707808;83;21060;-84
2021/11/17 03:16:50;;;;;;;42.70;17.45;;;;;;;-7.34;100.00;102507.19;1752742;80;21151;-83
2021/11/17 03:19:28;;;;;;;43.02;16.93;;;;;;;-7.32;100.00;102506.84;1750023;80;21929;-83
2021/11/17 03:22:12;;;;;;;34.73;16.50;;;;;;;-7.30;100.00;102501.00;1749237;80;21085;-84
2021/11/17 03:25:24;;;;;;;37.50;15.80;;;;;;;-7.23;100.00;102507.11;1751051;80;21563;-83
2021/11/17 03:28:16;;;;;;;30.88;14.15;;;;;;;-7.17;100.00;102508.97;1723664;81;21579;-83
2021/11/17 03:30:57;;;;;;;35.03;15.85;;;;;;;-7.07;100.00;102505.86;1726210;81;21805;-84
2021/11/17 03:34:12;;;;;;;35.75;15.72;;;;;;;-7.00;100.00;102507.75;1712573;82;22228;-85
2021/11/17 03:37:09;;;;;;;39.48;16.97;;;;;;;-7.00;100.00;102504.37;1723184;81;21022;-84
2021/11/17 03:40:02;;;;;;;43.13;17.50;;;;;;;-7.03;100.00;102508.95;1752567;80;21975;-85
2021/11/17 03:43:04;;;;;;;44.27;16.80;;;;;;;-7.11;100.00;102497.74;1752772;80;21088;-85
2021/11/17 03:45:43;;;;;;;37.98;15.25;;;;;;;-7.23;100.00;102498.25;1752851;81;21378;-85
2021/11/17 03:48:27;;;;;;;38.40;14.78;;;;;;;-7.34;100.00;102497.06;1751135;81;21729;-84
2021/11/17 03:51:21;;;;;;;29.77;14.40;;;;;;;-7.37;100.00;102494.05;1723225;83;21140;-85
2021/11/17 03:54:14;;;;;;;41.15;15.58;;;;;;;-7.37;100.00;102500.80;1737719;80;21063;-84
2021/11/17 03:57:18;;;;;;;33.92;15.98;;;;;;;-7.40;100.00;102497.73;1748667;81;21566;-85
2021/11/17 04:00:09;;;;;;;30.27;13.90;;;;;;;-7.40;100.00;102494.36;1752446;80;21956;-84
2021/11/17 04:02:57;;;;;;;34.10;14.05;;;;;;;-7.42;100.00;102490.92;1750385;81;21034;-87
2021/11/17 04:05:41;;;;;;;36.77;15.70;;;;;;;-7.44;100.00;102493.41;1752923;80;21978;-90
2021/11/17 04:08:29;;;;;;;32.70;14.85;;;;;;;-7.47;100.00;102486.98;1752522;81;21069;-86
2021/11/17 04:11:10;;;;;;;33.70;15.55;;;;;;;-7.47;100.00;102492.05;1722978;81;21557;-86
2021/11/17 04:13:58;;;;;;;43.45;18.92;;;;;;;-7.45;100.00;102496.75;1740355;81;21193;-88
2021/11/17 04:16:36;;;;;;;56.70;22.37;;;;;;;-7.46;100.00;102493.77;1676642;83;21088;-87
2021/11/17 04:19:51;;;;;;;46.30;16.30;;;;;;;-7.48;100.00;102494.12;1718453;83;21049;-86
2021/11/17 04:22:59;;;;;;;39.48;17.37;;;;;;;-7.38;100.00;102494.85;1733386;80;21135;-88
2021/11/17 04:25:45;;;;;;;51.33;21.52;;;;;;;-6.98;100.00;102496.42;1733252;80;21096;-89
2021/11/17 04:28:35;;;;;;;57.35;21.65;;;;;;;-6.87;100.00;102491.64;1754483;80;21960;-89
2021/11/17 04:31:36;;;;;;;60.67;22.02;;;;;;;-6.90;100.00;102491.55;1753041;80;21064;-92
2021/11/17 04:34:26;;;;;;;55.73;21.23;;;;;;;-6.98;100.00;102490.93;1783969;80;21061;-87
2021/11/17 04:37:14;;;;;;;55.33;22.07;;;;;;;-7.02;100.00;102499.67;1725163;82;21124;-89
2021/11/17 04:40:15;;;;;;;51.55;19.67;;;;;;;-7.05;100.00;102505.51;1677509;81;21171;-90
2021/11/17 04:43:01;;;;;;;;;;;;;;;-7.07;100.00;102492.36;1725062;82;21669;-86
2021/11/17 04:45:54;;;;;;;59.08;21.73;;;;;;;-6.83;100.00;102494.70;1715052;82;20323;-86
2021/11/17 04:48:49;;;;;;;45.33;20.27;;;;;;;-6.76;100.00;102496.58;1717676;82;21034;-89
2021/11/17 04:51:27;;;;;;;47.43;18.90;;;;;;;-6.85;100.00;102495.93;1712952;81;21681;-87
2021/11/17 04:54:13;;;;;;;56.75;19.00;;;;;;;-6.95;100.00;102493.11;1697707;82;21103;-88
2021/11/17 04:56:48;;;;;;;60.65;19.25;;;;;;;-6.91;100.00;102488.56;1742564;80;21082;-90
2021/11/17 04:59:33;;;;;;;49.45;17.95;;;;;;;-6.46;100.00;102484.28;1688040;80;21037;-85
2021/11/17 05:02:23;;;;;;;38.02;17.05;;;;;;;-5.92;100.00;102484.70;1725394;80;21073;-83
2021/11/17 05:05:02;;;;;;;41.60;18.15;;;;;;;-5.55;100.00;102475.36;1740993;81;21024;-84
2021/11/17 05:07:57;;;;;;;39.92;18.52;;;;;;;-5.56;100.00;102471.10;1687061;81;21502;-86
2021/11/17 05:10:38;;;;;;;33.95;18.10;;;;;;;-5.75;100.00;102469.45;1742447;81;21095;-85
2021/11/17 05:13:24;;;;;;;39.90;18.60;;;;;;;-5.96;100.00;102474.02;1741442;82;21074;-86
2021/11/17 05:16:26;;;;;;;38.50;17.73;;;;;;;-6.17;100.00;102463.84;1700285;82;21061;-85
2021/11/17 05:19:28;;;;;;;42.48;17.60;;;;;;;-6.37;100.00;102471.81;1703007;82;21015;-85
2021/11/17 05:22:13;;;;;;;33.65;16.45;;;;;;;-6.55;100.00;102468.83;1709743;82;21079;-87
2021/11/17 05:25:04;;;;;;;35.75;15.85;;;;;;;-6.69;100.00;102470.58;1707584;82;21835;-85
2021/11/17 05:28:11;;;;;;;37.23;16.42;;;;;;;-6.76;100.00;102471.66;1677559;83;21548;-86
2021/11/17 05:30:55;;;;;;;35.88;16.37;;;;;;;-6.82;100.00;102469.42;1731311;80;21171;-88
2021/11/17 05:33:48;;;;;;;;;;;;;;;-6.82;100.00;102470.69;1750165;81;21044;-88
2021/11/17 05:36:29;;;;;;;32.28;15.15;;;;;;;-6.80;100.00;102471.98;1747732;81;20158;-88
2021/11/17 05:39:24;;;;;;;40.65;18.15;;;;;;;-6.79;100.00;102482.58;1745504;81;21342;-86
2021/11/17 05:42:27;;;;;;;34.60;17.62;;;;;;;-6.79;100.00;102478.77;1708123;82;21053;-85
2021/11/17 05:45:07;;;;;;;39.63;18.12;;;;;;;-6.76;100.00;102481.80;1688530;83;21613;-87
2021/11/17 05:47:51;;;;;;;47.45;20.08;;;;;;;-6.74;100.00;102480.17;1691958;83;21061;-87
2021/11/17 05:50:29;;;;;;;37.80;18.15;;;;;;;-6.71;100.00;102484.91;1702744;83;21090;-87
2021/11/17 05:53:02;;;;;;;48.23;21.02;;;;;;;-6.66;100.00;102484.61;1707796;82;21867;-86
2021/11/17 05:55:38;;;;;;;45.08;20.92;;;;;;;-6.62;100.00;102476.67;1707840;82;21026;-86
2021/11/17 05:58:14;;;;;;;54.70;23.80;;;;;;;-6.58;100.00;102482.69;1713395;82;21152;-87
2021/11/17 06:01:11;;;;;;;52.67;22.07;;;;;;;-6.55;100.00;102477.70;1694702;83;21049;-86
2021/11/17 06:03:56;;;;;;;66.12;27.42;;;;;;;-6.54;100.00;102474.35;1731468;80;21065;-86
2021/11/17 06:06:23;;;;;;;51.33;23.22;;;;;;;-6.50;100.00;102477.01;1701248;83;21887;-87
2021/11/17 06:08:50;;;;;;;53.83;23.18;;;;;;;-6.46;100.00;102481.75;1740454;80;21096;-87
2021/11/17 06:11:21;;;;;;;53.68;25.05;;;;;;;-6.42;100.00;102483.52;1717965;82;21022;-86
2021/11/17 06:13:48;;;;;;;47.78;21.75;;;;;;;-6.37;100.00;102480.69;1713277;82;21089;-88
2021/11/17 06:16:15;;;;;;;51.92;22.85;;;;;;;-6.30;100.00;102483.40;1713324;82;21641;-86
2021/11/17 06:18:44;;;;;;;65.55;28.87;;;;;;;-6.23;100.00;102478.92;1671747;84;21151;-86
2021/11/17 06:21:13;;;;;;;51.13;24.70;;;;;;;-6.17;100.00;102474.42;1687713;84;21085;-87
2021/11/17 06:23:48;;;;;;;59.10;24.70;;;;;;;-6.11;100.00;102474.14;1686213;83;21158;-88
2021/11/17 06:26:23;;;;;;;57.70;26.42;;;;;;;-6.02;100.00;102472.25;1650717;85;21053;-87
2021/11/17 06:29:00;;;;;;;46.83;24.50;;;;;;;-5.93;100.00;102474.09;1647862;85;21089;-85
2021/11/17 06:31:28;;;;;;;68.92;30.27;;;;;;;-5.83;100.00;102478.96;1663373;84;21726;-87
2021/11/17 06:33:55;;;;;;;54.45;28.98;;;;;;;-5.73;100.00;102473.28;1673389;85;21033;-86
2021/11/17 06:36:23;;;;;;;56.02;28.17;;;;;;;-5.61;100.00;102479.05;1639565;85;21171;-87
2021/11/17 06:38:51;;;;;;;58.02;28.70;;;;;;;-5.51;100.00;102473.74;1658592;84;21359;-87
2021/11/17 06:41:20;;;;;;;75.50;36.60;;;;;;;-5.41;100.00;102471.43;1661962;84;21111;-86
2021/11/17 06:43:54;;;;;;;61.25;31.20;;;;;;;-5.31;100.00;102475.05;1658523;85;21827;-85
2021/11/17 06:46:18;;;;;;;55.52;28.50;;;;;;;-5.25;100.00;102470.08;1636643;86;21285;-85
2021/11/17 06:48:44;;;;;;;53.73;27.55;;;;;;;-5.16;100.00;102466.86;1661380;84;21143;-86
2021/11/17 06:51:12;;;;;;;46.58;26.17;;;;;;;-5.08;100.00;102465.75;1661094;86;21593;-85
2021/11/17 06:53:40;;;;;;;54.38;27.27;;;;;;;-4.97;100.00;102466.83;1661644;85;20972;-85
2021/11/17 06:56:07;;;;;;;59.38;30.35;;;;;;;-4.87;100.00;102452.60;1661763;84;21096;-86
2021/11/17 06:58:34;;;;;;;54.27;29.27;;;;;;;-4.75;100.00;102450.27;1649437;86;21011;-86
2021/11/17 07:01:01;;;;;;;47.05;26.42;;;;;;;-4.64;100.00;102449.62;1661477;85;21078;-86
2021/11/17 07:03:30;;;;;;;49.08;25.37;;;;;;;-4.54;100.00;102440.05;1661503;84;21090;-86
2021/11/17 07:05:57;;;;;;;51.90;26.77;;;;;;;-4.39;100.00;102443.68;1661134;84;21071;-85
2021/11/17 07:08:24;;;;;;;52.43;26.93;;;;;;;-4.23;100.00;102439.68;1659462;86;21145;-87
2021/11/17 07:10:53;;;;;;;58.87;29.55;;;;;;;-4.09;100.00;102439.90;1657168;84;21036;-88
2021/11/17 07:13:21;;;;;;;52.17;27.13;;;;;;;-3.98;100.00;102440.50;1623292;87;22017;-87
2021/11/17 07:15:48;;;;;;;57.65;29.00;;;;;;;-3.89;100.00;102435.11;1661365;84;21670;-88
2021/11/17 07:18:15;;;;;;;54.42;27.15;;;;;;;-3.80;100.00;102437.36;1661521;84;21099;-88
2021/11/17 07:20:43;;;;;;;51.28;27.13;;;;;;;-3.70;100.00;102431.13;1633210;86;21115;-88
2021/11/17 07:23:12;;;;;;;47.78;27.00;;;;;;;-3.56;100.00;102424.52;1632618;86;21585;-88
2021/11/17 07:25:39;;;;;;;59.42;28.23;;;;;;;-3.42;100.00;102424.69;1662835;84;21071;-88
2021/11/17 07:28:06;;;;;;;53.10;28.57;;;;;;;-3.30;100.00;102425.26;1658120;86;21595;-88
2021/11/17 07:30:41;;;;;;;48.98;26.33;;;;;;;-3.20;100.00;102417.29;1630001;86;21124;-89
2021/11/17 07:33:09;;;;;;;56.55;28.55;;;;;;;-3.12;100.00;102419.50;1700542;82;21145;-90
2021/11/17 07:35:43;;;;;;;44.98;25.20;;;;;;;-2.99;100.00;102416.67;1728575;81;21154;-90
2021/11/17 07:38:15;;;;;;;47.25;26.33;;;;;;;-2.87;100.00;102416.81;1696127;84;21090;-88
2021/11/17 07:40:44;;;;;;;44.93;24.92;;;;;;;-2.72;100.00;102415.23;1697414;84;21598;-90
2021/11/17 07:43:13;;;;;;;47.85;27.82;;;;;;;-2.58;100.00;102410.27;1703204;83;21095;-88
2021/11/17 07:45:42;;;;;;;46.42;26.55;;;;;;;-2.44;100.00;102411.23;1721261;82;21165;-89
2021/11/17 07:48:12;;;;;;;51.42;26.60;;;;;;;-2.31;100.00;102412.59;1745813;82;22032;-91
2021/11/17 07:50:41;;;;;;;49.13;30.70;;;;;;;-1.97;100.00;102411.14;1746209;81;21835;-91
2021/11/17 07:53:10;;;;;;;51.45;27.15;;;;;;;-1.39;100.00;102413.53;1746348;81;22530;-91
2021/11/17 07:55:43;;;;;;;48.87;27.98;;;;;;;-1.00;100.00;102410.66;1743443;80;21044;-91
2021/11/17 07:58:10;;;;;;;42.05;26.17;;;;;;;-0.64;100.00;102416.69;1731685;81;21114;-90
2021/11/17 08:00:42;;;;;;;45.95;26.33;;;;;;;-0.56;100.00;102411.55;1743395;80;21514;-91
2021/11/17 08:03:10;;;;;;;44.27;27.15;;;;;;;-0.59;100.00;102415.82;1696270;82;24045;-92
2021/11/17 08:05:40;;;;;;;43.45;23.70;;;;;;;-0.52;100.00;102417.11;1718104;82;21151;-90
2021/11/17 08:08:08;;;;;;;53.65;25.55;;;;;;;-0.43;100.00;102417.53;1701351;82;21041;-93
2021/11/17 08:10:43;;;;;;;46.18;24.92;;;;;;;-0.33;100.00;102410.28;1701189;82;21072;-93
2021/11/17 08:13:10;;;;;;;35.90;22.40;;;;;;;-0.09;100.00;102416.23;1700095;83;22436;-93
2021/11/17 08:15:40;;;;;;;41.20;24.47;;;;;;;0.03;100.00;102411.51;1643733;85;21137;-93
2021/11/17 08:18:07;;;;;;;37.98;21.80;;;;;;;0.12;100.00;102410.66;1738150;81;21044;-89
2021/11/17 08:20:35;;;;;;;45.83;23.62;;;;;;;0.23;100.00;102413.18;1730873;81;21036;-90
2021/11/17 08:23:05;;;;;;;32.05;20.65;;;;;;;0.28;100.00;102405.87;1704035;82;21156;-93
2021/11/17 08:25:36;;;;;;;;;;;;;;;0.55;100.00;102398.95;1716507;82;21064;-92
2021/11/17 08:28:06;;;;;;;41.02;22.45;;;;;;;0.85;100.00;102394.51;1746627;81;20224;-92
2021/11/17 08:30:35;;;;;;;31.42;21.15;;;;;;;0.97;100.00;102395.31;1743913;80;21483;-92
2021/11/17 08:33:05;;;;;;;33.35;20.02;;;;;;;0.96;100.00;102393.19;1718084;81;21542;-92
2021/11/17 08:35:33;;;;;;;28.75;18.57;;;;;;;1.00;100.00;102385.87;1748142;80;21818;-92
2021/11/17 08:38:07;;;;;;;39.98;21.70;;;;;;;1.03;100.00;102374.73;1751167;80;21027;-91
2021/11/17 08:40:47;;;;;;;33.00;19.20;;;;;;;0.98;100.00;102375.21;1754341;81;21049;-92
2021/11/17 08:43:18;;;;;;;33.83;19.67;;;;;;;1.00;100.00;102369.65;1762632;80;21499;-90
2021/11/17 08:45:49;;;;;;;32.57;18.57;;;;;;;1.04;100.00;102369.59;1764902;80;21055;-89
2021/11/17 08:48:16;;;;;;;40.88;19.57;;;;;;;1.09;100.00;102368.27;1681950;83;21156;-89
2021/11/17 08:50:46;;;;;;;41.37;19.55;;;;;;;1.25;100.00;102369.02;1705363;82;21531;-85
2021/11/17 08:53:17;;;;;;;146.15;23.38;;;;;;;1.46;100.00;102371.84;1707136;82;21794;-85
2021/11/17 08:55:45;;;;;;;44.03;19.57;;;;;;;1.67;100.00;102375.08;1708872;82;21089;-85
2021/11/17 08:58:19;;;;;;;45.95;18.98;;;;;;;1.85;100.00;102368.89;1711554;82;21578;-85
2021/11/17 09:00:47;;;;;;;37.45;18.65;;;;;;;2.00;100.00;102366.16;1716859;81;22141;-86
2021/11/17 09:03:17;;;;;;;33.63;16.95;;;;;;;2.07;100.00;102357.95;1739101;80;21518;-85
2021/11/17 09:05:55;;;;;;;29.70;17.27;;;;;;;2.07;100.00;102354.55;1748190;80;21060;-86
2021/11/17 09:17:03;;;;;;;24.07;15.43;;;;;;;2.06;100.00;102348.54;1766822;80;21190;-86
2021/11/17 09:19:31;;;;;;;29.15;16.73;;;;;;;2.18;100.00;102339.83;1772604;79;21071;-86
2021/11/17 09:21:59;;;;;;;25.25;15.78;;;;;;;2.28;100.00;102332.88;1709245;81;21011;-86
2021/11/17 09:24:28;;;;;;;25.08;16.15;;;;;;;2.30;100.00;102334.97;1737592;80;21048;-86
2021/11/17 09:26:56;;;;;;;26.12;16.57;;;;;;;2.15;100.00;102325.30;1783081;79;21043;-86
2021/11/17 09:29:23;;;;;;;26.00;15.50;;;;;;;2.06;100.00;102336.97;1767534;80;21494;-86
2021/11/17 09:31:51;;;;;;;30.43;16.67;;;;;;;2.02;100.00;102336.61;1767370;80;21004;-86
2021/11/17 09:34:19;;;;;;;25.80;17.23;;;;;;;2.09;100.00;102333.09;1776245;80;20996;-86
2021/11/17 09:36:46;;;;;;;27.67;16.97;;;;;;;2.06;100.00;102329.27;1749886;79;21217;-86
2021/11/17 09:39:14;;;;;;;25.08;16.02;;;;;;;1.99;100.00;102328.51;1763129;80;21079;-86
2021/11/17 09:41:49;;;;;;;28.20;16.02;;;;;;;1.94;100.00;102330.70;1714841;81;21012;-86
2021/11/17 09:44:25;;;;;;;26.42;16.00;;;;;;;1.88;100.00;102323.91;1745182;79;21008;-86
2021/11/17 09:46:53;;;;;;;25.72;15.43;;;;;;;1.82;100.00;102319.69;1741752;79;21023;-86
2021/11/17 09:49:37;;;;;;;19.07;13.30;;;;;;;1.87;100.00;102306.38;1733714;81;21539;-86
2021/11/17 09:52:10;;;;;;;25.43;16.27;;;;;;;1.94;100.00;102312.72;1706893;82;21120;-84
2021/11/17 09:54:59;;;;;;;26.07;13.45;;;;;;;2.04;100.00;102302.76;1728368;80;21825;-84
2021/11/17 09:57:31;;;;;;;23.30;14.18;;;;;;;2.03;100.00;102301.05;1740613;82;21569;-85
2021/11/17 10:00:12;;;;;;;26.85;13.75;;;;;;;2.04;100.00;102301.02;1742968;82;21039;-84
2021/11/17 10:02:48;;;;;;;20.10;12.73;;;;;;;2.03;100.00;102294.18;1743427;82;21506;-84
2021/11/17 10:05:23;;;;;;;29.20;14.80;;;;;;;2.03;100.00;102289.48;1734610;80;21034;-86
2021/11/17 10:13:49;;;;;;;21.87;14.03;;;;;;;2.17;100.00;102293.14;1748693;79;21052;-85
2021/11/17 10:16:17;;;;;;;22.07;13.83;;;;;;;2.17;100.00;102292.73;1724693;81;21065;-86
2021/11/17 10:19:07;;;;;;;21.70;13.65;;;;;;;2.20;100.00;102290.55;1755980;79;21832;-86
2021/11/17 10:21:36;;;;;;;24.20;13.58;;;;;;;2.18;100.00;102291.86;1732926;79;21103;-85
2021/11/17 10:24:17;;;;;;;34.15;16.55;;;;;;;2.23;100.00;102290.94;1749869;79;21098;-85
2021/11/17 10:26:55;;;;;;;23.60;15.63;;;;;;;2.31;100.00;102291.27;1777327;78;21629;-85
2021/11/17 10:29:27;;;;;;;25.00;15.18;;;;;;;2.39;100.00;102289.86;1754040;79;21112;-85
2021/11/17 10:32:05;;;;;;;24.90;15.13;;;;;;;2.39;100.00;102291.14;1763442;79;21907;-86
2021/11/17 10:34:48;;;;;;;22.95;14.13;;;;;;;2.39;100.00;102291.14;1759568;79;21152;-84
2021/11/17 10:37:40;;;;;;;23.30;13.08;;;;;;;2.40;100.00;102286.42;1757172;79;21280;-83
2021/11/17 10:40:23;;;;;;;23.57;15.80;;;;;;;2.38;100.00;102286.03;1763613;80;21558;-84
2021/11/17 10:43:02;;;;;;;24.07;14.13;;;;;;;2.39;100.00;102287.29;1731003;80;21076;-84
2021/11/17 10:45:36;;;;;;;31.93;14.68;;;;;;;2.48;100.00;102278.16;1763138;79;21052;-84
2021/11/17 10:48:23;;;;;;;35.52;20.30;;;;;;;2.67;100.00;102281.76;1730482;81;21171;-83
2021/11/17 10:50:51;;;;;;;44.58;20.60;;;;;;;2.78;100.00;102281.14;1759867;79;21081;-85
2021/11/17 10:53:29;;;;;;;35.45;20.00;;;;;;;2.90;100.00;102280.54;1763809;79;21085;-85
2021/11/17 10:56:06;;;;;;;45.25;19.55;;;;;;;2.89;100.00;102282.70;1759099;79;21085;-84
2021/11/17 10:58:37;;;;;;;94.62;23.45;;;;;;;2.84;100.00;102283.60;1729392;81;21107;-85
2021/11/17 11:01:15;;;;;;;26.80;15.23;;;;;;;2.84;100.00;102281.03;1733119;82;21177;-85
2021/11/17 11:03:50;;;;;;;29.77;17.12;;;;;;;2.92;100.00;102276.23;1752667;80;21111;-85
2021/11/17 11:06:27;;;;;;;25.52;15.13;;;;;;;2.89;100.00;102276.27;1756625;80;21118;-85
2021/11/17 11:09:11;;;;;;;26.23;14.83;;;;;;;2.78;100.00;102272.12;1751419;80;21042;-84
2021/11/17 11:11:47;;;;;;;33.08;15.90;;;;;;;2.67;100.00;102272.30;1756895;80;21046;-84
2021/11/17 11:14:27;;;;;;;19.98;13.03;;;;;;;2.65;100.00;102272.75;1727046;79;21184;-84
2021/11/17 11:17:22;;;;;;;27.07;14.25;;;;;;;2.65;100.00;102266.33;1730703;81;21043;-84
2021/11/17 11:19:50;;;;;;;27.17;13.10;;;;;;;2.59;100.00;102257.88;1717749;82;21361;-85
2021/11/17 11:22:23;;;;;;;27.20;14.50;;;;;;;2.51;100.00;102256.27;1721393;81;21037;-84
2021/11/17 11:24:58;;;;;;;25.08;14.03;;;;;;;2.51;100.00;102251.13;1699976;83;21051;-84
2021/11/17 11:27:31;;;;;;;25.25;13.72;;;;;;;2.67;100.00;102254.75;1693995;83;21087;-85
2021/11/17 11:30:10;;;;;;;29.77;14.07;;;;;;;2.67;100.00;102254.75;1662601;83;21013;-84
2021/11/17 11:32:46;;;;;;;29.05;15.23;;;;;;;2.75;100.00;102255.89;1654821;83;21546;-84
2021/11/17 11:35:19;;;;;;;24.32;15.15;;;;;;;2.84;100.00;102251.44;1732769;80;21081;-84
2021/11/17 11:37:55;;;;;;;34.92;19.35;;;;;;;2.90;100.00;102250.50;1719597;82;21125;-83
2021/11/17 11:40:31;;;;;;;31.00;17.65;;;;;;;2.88;100.00;102253.56;1732132;80;21127;-84
2021/11/17 11:43:18;;;;;;;38.08;16.97;;;;;;;2.85;100.00;102251.02;1684860;82;21044;-85
2021/11/17 11:45:52;;;;;;;26.57;16.23;;;;;;;2.88;100.00;102253.98;1735614;80;21663;-84
2021/11/17 11:48:30;;;;;;;29.15;15.53;;;;;;;2.89;100.00;102250.08;1684850;83;21042;-84
2021/11/17 11:51:05;;;;;;;25.88;15.90;;;;;;;2.91;100.00;102248.34;1705946;81;21124;-85
2021/11/17 11:54:20;;;;;;;28.77;15.50;;;;;;;2.99;100.00;102248.22;1723882;81;21175;-85
2021/11/17 11:57:05;;;;;;;31.80;18.50;;;;;;;2.94;100.00;102250.00;1732750;81;20999;-85
2021/11/17 11:59:36;;;;;;;30.75;16.37;;;;;;;2.92;100.00;102247.92;1708455;80;21073;-85
2021/11/17 12:02:22;;;;;;;19.95;14.70;;;;;;;2.87;100.00;102249.70;1691713;82;21038;-84
2021/11/17 12:04:56;;;;;;;29.05;15.88;;;;;;;2.86;100.00;102244.14;1739994;80;21062;-84
2021/11/17 12:07:33;;;;;;;26.90;16.32;;;;;;;2.84;100.00;102240.31;1729050;80;21014;-85
2021/11/17 12:10:15;;;;;;;26.12;16.65;;;;;;;2.84;100.00;102229.57;1684037;80;21045;-84
2021/11/17 12:12:43;;;;;;;27.93;16.65;;;;;;;2.84;100.00;102229.57;1702808;82;21148;-85
2021/11/17 12:15:35;;;;;;;26.87;16.97;;;;;;;2.90;100.00;102227.79;1713909;80;21058;-85
2021/11/17 12:18:18;;;;;;;27.82;18.35;;;;;;;2.90;100.00;102223.48;1706969;80;21633;-84
2021/11/17 12:20:53;;;;;;;40.45;19.40;;;;;;;2.95;100.00;102223.40;1743763;80;21995;-84
2021/11/17 12:23:27;;;;;;;32.88;18.60;;;;;;;2.94;100.00;102220.41;1713327;80;21124;-84
2021/11/17 12:25:59;;;;;;;30.48;18.32;;;;;;;2.87;100.00;102213.25;1715338;80;21771;-85
2021/11/17 12:28:29;;;;;;;23.25;15.23;;;;;;;2.76;100.00;102211.29;1708603;82;21741;-84
2021/11/17 12:31:04;;;;;;;37.75;18.35;;;;;;;2.76;100.00;102211.29;1704701;83;21093;-84
2021/11/17 12:33:46;;;;;;;30.77;17.07;;;;;;;2.59;100.00;102200.00;1707875;81;21157;-84
2021/11/17 12:36:28;;;;;;;26.42;15.60;;;;;;;2.65;100.00;102197.32;1717213;80;21043;-85
2021/11/17 12:38:55;;;;;;;;;;;;;;;2.65;100.00;102197.32;1704299;82;21033;-84
2021/11/17 12:41:28;;;;;;;35.55;15.60;;;;;;;2.67;100.00;102198.99;1769314;80;20170;-84
2021/11/17 12:44:24;;;;;;;28.05;14.83;;;;;;;2.63;100.00;102199.93;1751353;81;21003;-84
2021/11/17 12:47:15;;;;;;;160.20;20.25;;;;;;;2.59;100.00;102198.72;1704583;82;21152;-84
2021/11/17 12:49:51;;;;;;;34.75;16.95;;;;;;;2.68;100.00;102201.98;1695543;83;21067;-84
2021/11/17 12:52:35;;;;;;;67.42;18.57;;;;;;;2.80;100.00;102200.09;1690794;82;21071;-84
2021/11/17 12:55:11;;;;;;;42.00;16.57;;;;;;;2.81;100.00;102198.77;1656609;84;21040;-84
2021/11/17 12:57:51;;;;;;;40.85;17.40;;;;;;;2.92;100.00;102194.72;1729103;81;21112;-84
2021/11/17 13:00:33;;;;;;;44.25;18.25;;;;;;;3.02;100.00;102199.70;1695520;82;21116;-83
2021/11/17 13:03:05;;;;;;;66.53;21.12;;;;;;;3.09;100.00;102196.97;1695737;83;21550;-84
2021/11/17 13:05:43;;;;;;;59.73;20.43;;;;;;;3.09;100.00;102189.70;1667382;84;21065;-84
2021/11/17 13:08:16;;;;;;;82.88;23.22;;;;;;;3.14;100.00;102196.47;1701888;82;21567;-84
2021/11/17 13:11:04;;;;;;;47.33;20.62;;;;;;;3.21;100.00;102188.63;1646152;83;21108;-84
2021/11/17 13:13:47;;;;;;;58.33;22.70;;;;;;;3.30;100.00;102182.84;1731493;81;21049;-84
2021/11/17 13:16:29;;;;;;;48.63;20.90;;;;;;;3.37;100.00;102187.45;1688642;83;21024;-84
2021/11/17 13:19:04;;;;;;;47.45;21.50;;;;;;;3.40;100.00;102182.67;1712354;83;21090;-84
2021/11/17 13:21:39;;;;;;;42.88;21.10;;;;;;;3.39;100.00;102185.70;1718426;82;21803;-84
2021/11/17 13:24:17;;;;;;;66.70;22.25;;;;;;;3.37;100.00;102189.16;1689885;83;21113;-83
2021/11/17 13:26:53;;;;;;;63.90;23.73;;;;;;;3.33;100.00;102194.81;1688297;83;21117;-83
2021/11/17 13:29:34;;;;;;;50.58;21.20;;;;;;;3.32;100.00;102187.99;1721713;83;21542;-84
2021/11/17 13:32:11;;;;;;;44.93;22.32;;;;;;;3.33;100.00;102196.09;1717009;82;28247;-83
2021/11/17 13:34:42;;;;;;;54.73;23.70;;;;;;;3.33;100.00;102188.83;1688876;81;21057;-83
2021/11/17 13:37:38;;;;;;;;;;;;;;;3.33;100.00;102188.83;1724307;83;21073;-83
2021/11/17 13:40:10;;;;;;;46.18;22.37;;;;;;;3.31;100.00;102196.59;1722200;83;21188;-83
2021/11/17 13:42:39;;;;;;;47.45;23.40;;;;;;;3.26;100.00;102194.10;1763923;80;21506;-84
2021/11/17 13:45:14;;;;;;;46.65;23.85;;;;;;;3.22;100.00;102192.45;1754576;81;21498;-83
2021/11/17 13:47:44;;;;;;;51.25;26.93;;;;;;;3.22;100.00;102195.47;1708693;81;21113;-84
2021/11/17 13:50:15;;;;;;;61.45;32.42;;;;;;;3.18;100.00;102198.97;1686317;81;21027;-83
2021/11/17 13:52:46;;;;;;;54.63;31.40;;;;;;;3.15;100.00;102190.87;1748727;80;21816;-83
2021/11/17 13:55:16;;;;;;;;;;;;;;;3.12;100.00;102187.08;1731795;81;21055;-83
2021/11/17 13:57:45;;;;;;;107.70;47.75;;;;;;;3.08;100.00;102190.16;1697785;82;20182;-83
2021/11/17 14:00:15;;;;;;;247.17;109.92;;;;;;;3.05;100.00;102190.20;1703880;82;21012;-83
2021/11/17 14:02:47;;;;;;;336.43;148.17;;;;;;;3.00;100.00;102190.73;1716469;81;21035;-83
2021/11/17 14:05:16;;;;;;;367.82;169.25;;;;;;;2.95;100.00;102185.66;1751879;81;21183;-83
2021/11/17 14:07:44;;;;;;;488.15;245.73;;;;;;;2.86;100.00;102181.96;1734787;81;21017;-83
2021/11/17 14:10:13;;;;;;;622.48;325.48;;;;;;;2.78;100.00;102188.97;1655326;83;21140;-83
2021/11/17 14:12:41;;;;;;;625.17;331.65;;;;;;;2.70;100.00;102188.25;1697735;82;21068;-83
2021/11/17 14:15:09;;;;;;;566.65;281.47;;;;;;;2.48;100.00;102182.18;1710172;82;21573;-86
2021/11/17 14:17:37;;;;;;;511.73;217.00;;;;;;;2.37;100.00;102182.32;1677873;83;21064;-86
2021/11/17 14:20:07;;;;;;;410.32;165.77;;;;;;;2.37;100.00;102182.32;1653885;85;21093;-85
2021/11/17 14:22:35;;;;;;;308.55;125.75;;;;;;;2.20;100.00;102177.45;1669572;83;21069;-85
2021/11/17 14:25:12;;;;;;;232.80;104.58;;;;;;;2.20;100.00;102177.45;1698192;82;21106;-85
2021/11/17 14:27:43;;;;;;;190.18;79.40;;;;;;;2.11;100.00;102167.30;1683890;85;21066;-85
2021/11/17 14:30:22;;;;;;;183.35;77.15;;;;;;;1.99;100.00;102169.61;1706710;83;21827;-86
2021/11/17 14:32:52;;;;;;;186.95;79.95;;;;;;;1.99;100.00;102169.61;1674959;84;21056;-86
2021/11/17 14:35:22;;;;;;;166.90;72.58;;;;;;;1.93;100.00;102164.12;1654764;85;21061;-84
2021/11/17 14:37:50;;;;;;;138.82;59.10;;;;;;;1.89;100.00;102165.05;1655210;85;21532;-84